createdAt,value
2019-03-17T00:28:20.754Z,11.53
2019-03-17T00:28:21.325Z,11.52
2019-03-17T00:28:21.928Z,11.53
2019-03-17T00:28:22.528Z,11.50
2019-03-17T00:28:23.124Z,11.53
2019-03-17T00:28:23.723Z,11.54
2019-03-17T00:28:24.324Z,11.53
2019-03-17T00:28:24.926Z,11.50
2019-03-17T00:29:18.408Z,11.47
2019-03-17T00:29:18.977Z,11.47
2019-03-17T00:29:19.579Z,11.52
2019-03-17T00:29:20.177Z,11.56
2019-03-17T00:29:20.776Z,11.49
2019-03-17T00:29:21.377Z,11.54
2019-03-17T00:29:21.976Z,11.47
2019-03-17T00:29:22.578Z,11.52
2019-03-17T00:30:17.080Z,11.50
2019-03-17T00:30:17.653Z,11.50
2019-03-17T00:30:18.253Z,11.50
2019-03-17T00:30:18.856Z,11.49
2019-03-17T00:30:19.452Z,11.50
2019-03-17T00:30:20.051Z,11.54
2019-03-17T00:30:20.650Z,11.44
2019-03-17T00:30:21.251Z,11.47
2019-03-17T00:31:23.711Z,11.47
2019-03-17T00:31:23.792Z,11.47
2019-03-17T00:31:23.805Z,11.50
2019-03-17T00:31:23.817Z,11.53
2019-03-17T00:31:23.858Z,11.38
2019-03-17T00:31:23.889Z,11.47
2019-03-17T00:31:24.200Z,11.46
2019-03-17T00:31:24.264Z,11.47
2019-03-17T00:32:13.411Z,11.43
2019-03-17T00:32:13.984Z,11.43
2019-03-17T00:32:14.581Z,11.41
2019-03-17T00:32:15.181Z,11.46
2019-03-17T00:32:15.781Z,11.49
2019-03-17T00:32:16.384Z,11.50
2019-03-17T00:32:16.981Z,11.44
2019-03-17T00:32:17.579Z,11.49
2019-03-17T00:33:11.061Z,11.39
2019-03-17T00:33:11.638Z,11.41
2019-03-17T00:33:12.241Z,11.50
2019-03-17T00:33:12.834Z,11.39
2019-03-17T00:33:13.433Z,11.46
2019-03-17T00:33:14.032Z,11.44
2019-03-17T00:33:14.633Z,11.46
2019-03-17T00:33:15.234Z,11.53
2019-03-17T00:34:08.721Z,11.43
2019-03-17T00:34:09.292Z,11.44
2019-03-17T00:34:09.889Z,11.47
2019-03-17T00:34:10.485Z,11.39
2019-03-17T00:34:11.087Z,11.43
2019-03-17T00:34:11.687Z,11.38
2019-03-17T00:34:12.285Z,11.36
2019-03-17T00:34:12.892Z,11.36
2019-03-17T00:35:06.367Z,11.41
2019-03-17T00:35:06.960Z,11.41
2019-03-17T00:35:07.545Z,11.47
2019-03-17T00:35:08.138Z,11.44
2019-03-17T00:35:08.737Z,11.47
2019-03-17T00:35:09.345Z,11.43
2019-03-17T00:35:09.936Z,11.52
2019-03-17T00:35:10.545Z,11.49
2019-03-17T00:36:04.017Z,11.44
2019-03-17T00:36:04.589Z,11.50
2019-03-17T00:36:05.191Z,11.50
2019-03-17T00:36:05.788Z,11.46
2019-03-17T00:36:06.389Z,11.46
2019-03-17T00:36:06.992Z,11.47
2019-03-17T00:36:07.611Z,11.46
2019-03-17T00:36:08.193Z,11.47
2019-03-17T00:37:01.673Z,11.43
2019-03-17T00:37:02.247Z,11.47
2019-03-17T00:37:02.841Z,11.50
2019-03-17T00:37:03.441Z,11.49
2019-03-17T00:37:04.041Z,11.39
2019-03-17T00:37:04.641Z,11.50
2019-03-17T00:37:05.239Z,11.49
2019-03-17T00:37:05.840Z,11.47
2019-03-17T00:38:00.347Z,11.44
2019-03-17T00:38:00.919Z,11.47
2019-03-17T00:38:01.516Z,11.44
2019-03-17T00:38:02.115Z,11.49
2019-03-17T00:38:02.719Z,11.47
2019-03-17T00:38:03.324Z,11.43
2019-03-17T00:38:03.915Z,11.50
2019-03-17T00:38:04.514Z,11.50
2019-03-17T00:38:59.035Z,11.49
2019-03-17T00:38:59.592Z,11.47
2019-03-17T00:39:00.192Z,11.52
2019-03-17T00:39:00.793Z,11.46
2019-03-17T00:39:01.391Z,11.50
2019-03-17T00:39:01.990Z,11.52
2019-03-17T00:39:02.594Z,11.46
2019-03-17T00:39:03.196Z,11.50
2019-03-17T00:39:57.187Z,11.49
2019-03-17T00:39:57.757Z,11.50
2019-03-17T00:39:58.362Z,11.44
2019-03-17T00:39:58.958Z,11.50
2019-03-17T00:39:59.554Z,11.49
2019-03-17T00:40:00.478Z,11.47
2019-03-17T00:40:00.763Z,11.49
2019-03-17T00:40:55.761Z,11.56
2019-03-17T00:40:56.333Z,11.46
2019-03-17T00:40:56.939Z,11.50
2019-03-17T00:40:57.532Z,11.52
2019-03-17T00:40:58.129Z,11.54
2019-03-17T00:40:58.728Z,11.47
2019-03-17T00:40:59.335Z,11.52
2019-03-17T00:41:52.899Z,11.39
2019-03-17T00:41:53.470Z,11.46
2019-03-17T00:41:54.070Z,11.44
2019-03-17T00:41:54.671Z,11.44
2019-03-17T00:41:55.280Z,11.47
2019-03-17T00:41:55.878Z,11.50
2019-03-17T00:41:56.472Z,11.50
2019-03-17T00:41:57.069Z,11.49
2019-03-17T00:42:50.550Z,11.39
2019-03-17T00:42:51.133Z,11.47
2019-03-17T00:42:51.723Z,11.46
2019-03-17T00:42:52.321Z,11.49
2019-03-17T00:42:52.922Z,11.38
2019-03-17T00:42:53.524Z,11.46
2019-03-17T00:42:54.122Z,11.47
2019-03-17T00:42:54.720Z,11.52
2019-03-17T00:43:49.224Z,11.43
2019-03-17T00:43:49.796Z,11.47
2019-03-17T00:43:50.397Z,11.54
2019-03-17T00:43:51.003Z,11.44
2019-03-17T00:43:51.596Z,11.46
2019-03-17T00:43:52.196Z,11.47
2019-03-17T00:43:52.797Z,11.47
2019-03-17T00:43:53.395Z,11.46
2019-03-17T00:44:47.396Z,11.49
2019-03-17T00:44:47.963Z,11.46
2019-03-17T00:44:48.560Z,11.47
2019-03-17T00:44:49.160Z,11.47
2019-03-17T00:44:49.760Z,11.53
2019-03-17T00:44:50.359Z,11.49
2019-03-17T00:44:50.961Z,11.44
2019-03-17T00:45:45.450Z,11.54
2019-03-17T00:45:46.022Z,11.50
2019-03-17T00:45:46.626Z,11.57
2019-03-17T00:45:47.220Z,11.54
2019-03-17T00:45:47.819Z,11.53
2019-03-17T00:45:48.423Z,11.57
2019-03-17T00:45:49.021Z,11.53
2019-03-17T00:45:49.640Z,11.54
2019-03-17T00:46:43.111Z,11.50
2019-03-17T00:46:43.676Z,11.53
2019-03-17T00:46:44.273Z,11.50
2019-03-17T00:46:44.898Z,11.52
2019-03-17T00:46:45.475Z,11.52
2019-03-17T00:46:46.074Z,11.50
2019-03-17T00:46:46.676Z,11.52
2019-03-17T00:46:47.273Z,11.52
2019-03-17T00:47:40.756Z,11.52
2019-03-17T00:47:41.327Z,11.50
2019-03-17T00:47:41.926Z,11.49
2019-03-17T00:47:42.527Z,11.59
2019-03-17T00:47:43.126Z,11.50
2019-03-17T00:47:43.729Z,11.54
2019-03-17T00:47:44.329Z,11.53
2019-03-17T00:47:44.926Z,11.52
2019-03-17T00:48:38.412Z,11.53
2019-03-17T00:48:38.981Z,11.52
2019-03-17T00:48:39.578Z,11.56
2019-03-17T00:48:40.265Z,11.50
2019-03-17T00:48:40.781Z,11.54
2019-03-17T00:48:41.377Z,11.52
2019-03-17T00:48:41.978Z,11.49
2019-03-17T00:48:42.580Z,11.56
2019-03-17T00:49:36.057Z,11.50
2019-03-17T00:49:36.630Z,11.49
2019-03-17T00:49:37.230Z,11.59
2019-03-17T00:49:37.830Z,11.53
2019-03-17T00:49:38.505Z,11.52
2019-03-17T00:49:39.030Z,11.50
2019-03-17T00:49:39.629Z,11.57
2019-03-17T00:49:40.231Z,11.50
2019-03-17T00:50:34.732Z,11.50
2019-03-17T00:50:35.305Z,11.62
2019-03-17T00:50:35.904Z,11.53
2019-03-17T00:50:36.504Z,11.53
2019-03-17T00:50:37.104Z,11.56
2019-03-17T00:50:37.706Z,11.64
2019-03-17T00:50:38.304Z,11.53
2019-03-17T00:50:38.905Z,11.50
2019-03-17T00:51:32.388Z,11.54
2019-03-17T00:51:32.957Z,11.57
2019-03-17T00:51:33.559Z,11.50
2019-03-17T00:51:34.158Z,11.53
2019-03-17T00:51:34.757Z,11.67
2019-03-17T00:51:35.356Z,11.67
2019-03-17T00:51:35.957Z,11.49
2019-03-17T00:51:36.556Z,11.52
2019-03-17T00:52:30.039Z,11.50
2019-03-17T00:52:30.616Z,11.57
2019-03-17T00:52:31.214Z,11.61
2019-03-17T00:52:31.808Z,11.64
2019-03-17T00:52:32.409Z,11.57
2019-03-17T00:52:33.011Z,11.64
2019-03-17T00:52:33.610Z,11.52
2019-03-17T00:52:34.210Z,11.52
2019-03-17T00:53:28.712Z,11.59
2019-03-17T00:53:29.284Z,11.59
2019-03-17T00:53:29.883Z,11.64
2019-03-17T00:53:30.483Z,11.61
2019-03-17T00:53:31.083Z,11.62
2019-03-17T00:53:31.683Z,11.61
2019-03-17T00:53:32.332Z,11.64
2019-03-17T00:53:32.881Z,11.67
2019-03-17T00:54:26.366Z,11.64
2019-03-17T00:54:26.937Z,11.64
2019-03-17T00:54:27.538Z,11.59
2019-03-17T00:54:28.136Z,11.59
2019-03-17T00:54:28.736Z,11.53
2019-03-17T00:54:29.336Z,11.57
2019-03-17T00:54:29.938Z,11.64
2019-03-17T00:54:30.535Z,11.65
2019-03-17T00:55:25.039Z,11.65
2019-03-17T00:55:25.615Z,11.68
2019-03-17T00:55:26.212Z,11.68
2019-03-17T00:55:26.811Z,11.61
2019-03-17T00:55:27.412Z,11.67
2019-03-17T00:55:28.012Z,11.62
2019-03-17T00:55:28.610Z,11.61
2019-03-17T00:55:29.216Z,11.71
2019-03-17T00:56:23.207Z,11.68
2019-03-17T00:56:23.778Z,11.67
2019-03-17T00:56:24.379Z,11.67
2019-03-17T00:56:24.979Z,11.62
2019-03-17T00:56:25.580Z,11.68
2019-03-17T00:56:26.179Z,11.57
2019-03-17T00:56:26.779Z,11.65
2019-03-17T00:57:21.265Z,11.68
2019-03-17T00:57:21.838Z,11.67
2019-03-17T00:57:22.438Z,11.68
2019-03-17T00:57:23.045Z,11.68
2019-03-17T00:57:23.635Z,11.68
2019-03-17T00:57:24.237Z,11.65
2019-03-17T00:57:24.834Z,11.67
2019-03-17T00:57:25.434Z,11.64
2019-03-17T00:58:18.924Z,11.65
2019-03-17T00:58:19.489Z,11.65
2019-03-17T00:58:20.091Z,11.64
2019-03-17T00:58:20.689Z,11.68
2019-03-17T00:58:21.290Z,11.65
2019-03-17T00:58:21.888Z,11.65
2019-03-17T00:58:22.503Z,11.67
2019-03-17T00:58:23.087Z,11.65
2019-03-17T00:59:19.641Z,11.65
2019-03-17T00:59:20.214Z,11.70
2019-03-17T00:59:20.813Z,11.65
2019-03-17T01:00:15.352Z,11.71
2019-03-17T01:00:15.922Z,11.72
2019-03-17T01:00:16.520Z,11.71
2019-03-17T01:00:17.116Z,11.72
2019-03-17T01:00:17.718Z,11.67
2019-03-17T01:00:18.318Z,11.65
2019-03-17T01:00:18.917Z,11.77
2019-03-17T01:00:19.517Z,11.70
2019-03-17T01:01:13.002Z,11.71
2019-03-17T01:01:13.572Z,11.74
2019-03-17T01:01:14.171Z,11.74
2019-03-17T01:01:14.771Z,11.75
2019-03-17T01:01:15.375Z,11.72
2019-03-17T01:01:15.970Z,11.68
2019-03-17T01:01:16.569Z,11.74
2019-03-17T01:01:17.171Z,11.74
2019-03-17T01:02:11.166Z,11.70
2019-03-17T01:02:11.734Z,11.75
2019-03-17T01:02:12.338Z,11.72
2019-03-17T01:02:12.932Z,11.75
2019-03-17T01:02:13.533Z,11.74
2019-03-17T01:02:14.133Z,11.72
2019-03-17T01:02:14.733Z,11.72
2019-03-17T01:03:08.323Z,11.70
2019-03-17T01:03:08.875Z,11.72
2019-03-17T01:03:09.476Z,11.71
2019-03-17T01:03:10.075Z,11.70
2019-03-17T01:03:10.676Z,11.71
2019-03-17T01:03:11.274Z,11.75
2019-03-17T01:03:11.875Z,11.74
2019-03-17T01:03:12.477Z,11.67
2019-03-17T01:04:05.957Z,11.72
2019-03-17T01:04:06.531Z,11.68
2019-03-17T01:04:07.127Z,11.72
2019-03-17T01:04:07.726Z,11.74
2019-03-17T01:04:08.325Z,11.74
2019-03-17T01:04:08.927Z,11.70
2019-03-17T01:04:09.525Z,11.75
2019-03-17T01:04:10.131Z,11.71
2019-03-17T01:05:03.710Z,11.67
2019-03-17T01:05:04.279Z,11.70
2019-03-17T01:05:04.879Z,11.70
2019-03-17T01:05:05.479Z,11.72
2019-03-17T01:05:06.079Z,11.72
2019-03-17T01:05:06.679Z,11.77
2019-03-17T01:05:07.277Z,11.67
2019-03-17T01:05:07.880Z,11.78
2019-03-17T01:06:02.383Z,11.75
2019-03-17T01:06:02.957Z,11.71
2019-03-17T01:06:03.560Z,11.77
2019-03-17T01:06:04.156Z,11.77
2019-03-17T01:06:04.756Z,11.75
2019-03-17T01:06:05.355Z,11.83
2019-03-17T01:06:05.957Z,11.82
2019-03-17T01:06:06.556Z,11.82
2019-03-17T01:07:01.059Z,11.87
2019-03-17T01:07:01.634Z,11.85
2019-03-17T01:07:02.229Z,11.85
2019-03-17T01:07:02.828Z,11.80
2019-03-17T01:07:03.430Z,11.78
2019-03-17T01:07:04.029Z,11.83
2019-03-17T01:07:04.631Z,11.89
2019-03-17T01:07:05.228Z,11.77
2019-03-17T01:07:59.223Z,11.87
2019-03-17T01:07:59.794Z,11.82
2019-03-17T01:08:00.400Z,11.90
2019-03-17T01:08:00.995Z,11.85
2019-03-17T01:08:01.594Z,11.77
2019-03-17T01:08:02.195Z,11.87
2019-03-17T01:08:02.794Z,11.83
2019-03-17T01:08:56.366Z,11.82
2019-03-17T01:08:56.935Z,11.83
2019-03-17T01:08:57.536Z,11.89
2019-03-17T01:08:58.137Z,11.93
2019-03-17T01:08:58.737Z,11.80
2019-03-17T01:08:59.336Z,11.83
2019-03-17T01:08:59.935Z,11.83
2019-03-17T01:09:00.534Z,11.83
2019-03-17T01:09:54.018Z,11.82
2019-03-17T01:09:54.586Z,11.97
2019-03-17T01:09:55.187Z,11.93
2019-03-17T01:09:55.788Z,11.82
2019-03-17T01:09:56.390Z,11.87
2019-03-17T01:09:56.986Z,11.86
2019-03-17T01:09:57.586Z,11.85
2019-03-17T01:09:58.192Z,11.83
2019-03-17T01:10:51.667Z,11.87
2019-03-17T01:10:52.238Z,11.89
2019-03-17T01:10:52.837Z,11.83
2019-03-17T01:10:53.438Z,11.86
2019-03-17T01:10:54.038Z,11.85
2019-03-17T01:10:54.637Z,11.83
2019-03-17T01:10:55.247Z,11.93
2019-03-17T01:10:55.839Z,11.93
2019-03-17T01:11:49.322Z,11.85
2019-03-17T01:11:49.891Z,11.90
2019-03-17T01:11:50.490Z,11.90
2019-03-17T01:11:51.091Z,11.93
2019-03-17T01:11:51.691Z,11.82
2019-03-17T01:11:52.295Z,11.87
2019-03-17T01:11:52.896Z,11.90
2019-03-17T01:11:53.496Z,11.87
2019-03-17T01:12:46.972Z,11.94
2019-03-17T01:12:47.542Z,11.89
2019-03-17T01:12:48.148Z,11.87
2019-03-17T01:12:48.745Z,11.85
2019-03-17T01:12:49.345Z,11.87
2019-03-17T01:12:49.941Z,11.90
2019-03-17T01:12:50.541Z,11.94
2019-03-17T01:12:51.141Z,11.86
2019-03-17T01:13:44.625Z,11.82
2019-03-17T01:13:45.195Z,11.87
2019-03-17T01:13:45.796Z,11.94
2019-03-17T01:13:46.393Z,11.90
2019-03-17T01:13:46.994Z,11.96
2019-03-17T01:13:47.594Z,11.94
2019-03-17T01:13:48.193Z,11.96
2019-03-17T01:13:48.796Z,11.96
2019-03-17T01:14:50.774Z,11.89
2019-03-17T01:14:51.344Z,11.93
2019-03-17T01:14:51.944Z,11.90
2019-03-17T01:14:52.546Z,11.90
2019-03-17T01:14:53.146Z,11.96
2019-03-17T01:14:53.745Z,11.86
2019-03-17T01:14:54.351Z,11.93
2019-03-17T01:14:54.947Z,12.01
2019-03-17T01:14:55.542Z,11.99
2019-03-17T01:14:56.142Z,11.99
2019-03-17T01:14:56.743Z,11.97
2019-03-17T01:14:57.349Z,11.93
2019-03-17T01:15:51.905Z,11.93
2019-03-17T01:15:52.477Z,11.96
2019-03-17T01:15:53.075Z,11.97
2019-03-17T01:15:53.676Z,11.86
2019-03-17T01:15:54.278Z,11.96
2019-03-17T01:15:54.881Z,11.87
2019-03-17T01:15:55.476Z,11.87
2019-03-17T01:15:56.075Z,11.90
2019-03-17T01:16:50.583Z,11.99
2019-03-17T01:16:51.153Z,11.93
2019-03-17T01:16:51.755Z,11.86
2019-03-17T01:16:52.354Z,11.97
2019-03-17T01:16:52.952Z,11.97
2019-03-17T01:16:53.556Z,11.97
2019-03-17T01:16:54.152Z,11.96
2019-03-17T01:16:54.753Z,11.87
2019-03-17T01:18:24.383Z,11.97
2019-03-17T01:18:24.954Z,11.99
2019-03-17T01:18:25.553Z,12.02
2019-03-17T01:18:26.152Z,11.97
2019-03-17T01:18:26.768Z,12.04
2019-03-17T01:18:27.355Z,12.01
2019-03-17T01:18:27.954Z,11.94
2019-03-17T01:18:28.553Z,11.96
2019-03-17T01:18:29.152Z,12.02
2019-03-17T01:18:29.752Z,11.99
2019-03-17T01:18:30.373Z,11.99
2019-03-17T01:18:31.015Z,12.01
2019-03-17T01:18:31.551Z,12.05
2019-03-17T01:18:32.150Z,11.94
2019-03-17T01:18:32.755Z,12.04
2019-03-17T01:19:26.744Z,11.93
2019-03-17T01:19:27.325Z,11.96
2019-03-17T01:19:27.918Z,12.01
2019-03-17T01:19:28.514Z,11.99
2019-03-17T01:19:29.114Z,11.99
2019-03-17T01:19:29.715Z,11.97
2019-03-17T01:19:30.317Z,11.99
2019-03-17T01:19:30.914Z,11.99
2019-03-17T01:20:25.932Z,11.96
2019-03-17T01:20:26.502Z,12.01
2019-03-17T01:20:27.101Z,12.04
2019-03-17T01:20:27.706Z,11.97
2019-03-17T01:20:28.365Z,11.96
2019-03-17T01:20:28.903Z,12.05
2019-03-17T01:20:29.502Z,12.05
2019-03-17T01:21:24.507Z,12.01
2019-03-17T01:21:25.081Z,12.05
2019-03-17T01:21:25.681Z,11.96
2019-03-17T01:21:26.281Z,11.99
2019-03-17T01:21:26.877Z,12.01
2019-03-17T01:21:27.482Z,12.01
2019-03-17T01:22:21.543Z,11.97
2019-03-17T01:22:22.119Z,12.01
2019-03-17T01:22:22.714Z,12.01
2019-03-17T01:22:23.321Z,11.96
2019-03-17T01:22:23.915Z,11.96
2019-03-17T01:22:24.514Z,12.01
2019-03-17T01:22:25.114Z,12.01
2019-03-17T01:22:25.719Z,11.94
2019-03-17T01:23:19.200Z,12.01
2019-03-17T01:23:19.766Z,11.97
2019-03-17T01:23:20.367Z,12.01
2019-03-17T01:23:20.970Z,11.99
2019-03-17T01:23:21.565Z,12.04
2019-03-17T01:23:22.166Z,12.01
2019-03-17T01:23:22.767Z,12.04
2019-03-17T01:23:23.366Z,12.04
2019-03-17T01:24:17.869Z,11.97
2019-03-17T01:24:18.442Z,12.01
2019-03-17T01:24:19.039Z,12.01
2019-03-17T01:24:19.646Z,12.06
2019-03-17T01:24:20.239Z,11.97
2019-03-17T01:24:20.840Z,12.04
2019-03-17T01:24:21.440Z,12.01
2019-03-17T01:24:22.039Z,12.01
2019-03-17T01:25:16.547Z,11.97
2019-03-17T01:25:17.117Z,12.06
2019-03-17T01:25:17.716Z,12.01
2019-03-17T01:25:18.320Z,12.01
2019-03-17T01:25:18.914Z,11.97
2019-03-17T01:25:19.515Z,12.01
2019-03-17T01:25:20.117Z,12.01
2019-03-17T01:25:20.715Z,12.08
2019-03-17T01:26:14.196Z,12.02
2019-03-17T01:26:14.767Z,12.01
2019-03-17T01:26:15.381Z,12.02
2019-03-17T01:26:15.969Z,12.01
2019-03-17T01:26:16.572Z,12.02
2019-03-17T01:26:17.167Z,12.11
2019-03-17T01:26:17.767Z,12.15
2019-03-17T01:26:18.367Z,12.06
2019-03-17T01:27:12.871Z,12.04
2019-03-17T01:27:13.447Z,12.06
2019-03-17T01:27:14.044Z,12.05
2019-03-17T01:27:14.657Z,12.01
2019-03-17T01:27:15.246Z,12.11
2019-03-17T01:27:15.845Z,12.06
2019-03-17T01:27:16.443Z,12.13
2019-03-17T01:27:17.048Z,12.05
2019-03-17T01:28:11.549Z,12.01
2019-03-17T01:28:12.123Z,12.01
2019-03-17T01:28:12.722Z,12.02
2019-03-17T01:28:13.323Z,12.02
2019-03-17T01:28:13.922Z,12.11
2019-03-17T01:28:14.519Z,12.08
2019-03-17T01:28:15.118Z,12.01
2019-03-17T01:28:15.719Z,12.01
2019-03-17T01:29:10.234Z,12.01
2019-03-17T01:29:10.794Z,12.06
2019-03-17T01:29:11.394Z,12.04
2019-03-17T01:29:11.993Z,12.08
2019-03-17T01:29:12.595Z,12.06
2019-03-17T01:29:13.197Z,12.02
2019-03-17T01:29:13.794Z,12.06
2019-03-17T01:29:14.392Z,12.05
2019-03-17T01:30:08.908Z,12.05
2019-03-17T01:30:09.471Z,12.05
2019-03-17T01:30:10.071Z,12.09
2019-03-17T01:30:10.671Z,12.09
2019-03-17T01:30:11.274Z,12.02
2019-03-17T01:30:11.902Z,12.08
2019-03-17T01:30:12.470Z,12.09
2019-03-17T01:30:13.071Z,12.09
2019-03-17T01:31:07.576Z,12.05
2019-03-17T01:31:08.147Z,12.11
2019-03-17T01:31:08.747Z,12.08
2019-03-17T01:31:09.346Z,12.12
2019-03-17T01:31:09.947Z,12.05
2019-03-17T01:31:10.545Z,12.11
2019-03-17T01:31:11.145Z,12.09
2019-03-17T01:31:11.745Z,12.08
2019-03-17T01:32:05.228Z,12.09
2019-03-17T01:32:05.802Z,12.11
2019-03-17T01:32:06.399Z,12.11
2019-03-17T01:32:06.998Z,12.05
2019-03-17T01:32:07.601Z,12.09
2019-03-17T01:32:08.201Z,12.12
2019-03-17T01:32:08.798Z,12.11
2019-03-17T01:32:09.415Z,12.08
2019-03-17T01:33:03.900Z,12.06
2019-03-17T01:33:04.474Z,12.09
2019-03-17T01:33:05.075Z,12.08
2019-03-17T01:33:05.676Z,12.09
2019-03-17T01:33:06.276Z,12.09
2019-03-17T01:33:06.875Z,12.08
2019-03-17T01:33:07.472Z,12.09
2019-03-17T01:33:08.072Z,12.11
2019-03-17T01:34:01.553Z,12.11
2019-03-17T01:34:02.128Z,12.02
2019-03-17T01:34:02.726Z,12.06
2019-03-17T01:34:03.326Z,12.08
2019-03-17T01:34:03.925Z,12.08
2019-03-17T01:34:04.525Z,12.09
2019-03-17T01:34:05.128Z,12.06
2019-03-17T01:34:05.726Z,12.11
2019-03-17T01:35:09.002Z,12.05
2019-03-17T01:35:09.029Z,12.11
2019-03-17T01:35:09.103Z,12.06
2019-03-17T01:35:09.120Z,12.05
2019-03-17T01:35:09.152Z,12.09
2019-03-17T01:35:09.163Z,12.06
2019-03-17T01:35:09.276Z,12.08
2019-03-17T01:35:09.299Z,12.05
2019-03-17T01:35:57.901Z,12.04
2019-03-17T01:35:58.458Z,12.05
2019-03-17T01:35:59.054Z,12.09
2019-03-17T01:35:59.654Z,12.11
2019-03-17T01:36:00.254Z,12.08
2019-03-17T01:36:00.855Z,12.06
2019-03-17T01:36:01.457Z,12.13
2019-03-17T01:36:02.056Z,12.09
2019-03-17T01:36:55.534Z,12.15
2019-03-17T01:36:56.107Z,12.06
2019-03-17T01:36:56.707Z,12.11
2019-03-17T01:36:57.306Z,12.15
2019-03-17T01:36:57.905Z,12.09
2019-03-17T01:36:58.508Z,12.04
2019-03-17T01:36:59.105Z,12.12
2019-03-17T01:36:59.704Z,12.06
2019-03-17T01:37:54.208Z,12.08
2019-03-17T01:37:54.781Z,12.08
2019-03-17T01:37:55.378Z,12.08
2019-03-17T01:37:55.978Z,12.06
2019-03-17T01:37:56.580Z,12.05
2019-03-17T01:37:57.180Z,12.09
2019-03-17T01:37:57.778Z,12.09
2019-03-17T01:37:58.381Z,12.09
2019-03-17T01:38:52.377Z,12.01
2019-03-17T01:38:52.944Z,12.11
2019-03-17T01:38:53.546Z,12.15
2019-03-17T01:38:54.145Z,12.05
2019-03-17T01:38:54.742Z,12.06
2019-03-17T01:38:55.343Z,12.08
2019-03-17T01:38:55.944Z,12.01
2019-03-17T01:39:50.435Z,12.06
2019-03-17T01:39:51.004Z,12.11
2019-03-17T01:39:51.605Z,12.09
2019-03-17T01:39:52.203Z,12.11
2019-03-17T01:39:52.803Z,12.09
2019-03-17T01:39:53.405Z,12.08
2019-03-17T01:39:54.003Z,12.06
2019-03-17T01:39:54.612Z,12.11
2019-03-17T01:40:49.109Z,12.04
2019-03-17T01:40:49.684Z,12.01
2019-03-17T01:40:50.280Z,12.13
2019-03-17T01:40:50.884Z,12.11
2019-03-17T01:40:51.481Z,12.12
2019-03-17T01:40:52.080Z,12.15
2019-03-17T01:40:52.687Z,12.13
2019-03-17T01:40:53.281Z,12.13
2019-03-17T01:41:47.785Z,12.01
2019-03-17T01:41:48.358Z,12.02
2019-03-17T01:41:48.956Z,12.04
2019-03-17T01:41:49.560Z,12.13
2019-03-17T01:41:50.155Z,12.04
2019-03-17T01:41:50.758Z,12.04
2019-03-17T01:41:51.393Z,12.19
2019-03-17T01:41:51.955Z,12.12
2019-03-17T01:42:45.948Z,12.11
2019-03-17T01:42:46.523Z,12.09
2019-03-17T01:42:47.119Z,12.08
2019-03-17T01:42:47.719Z,12.05
2019-03-17T01:42:48.328Z,12.08
2019-03-17T01:42:48.920Z,12.09
2019-03-17T01:42:49.523Z,12.05
2019-03-17T01:43:44.014Z,12.06
2019-03-17T01:43:44.584Z,12.11
2019-03-17T01:43:45.183Z,12.08
2019-03-17T01:43:45.781Z,12.09
2019-03-17T01:43:46.389Z,12.08
2019-03-17T01:43:46.985Z,12.04
2019-03-17T01:43:47.580Z,12.04
2019-03-17T01:43:48.181Z,12.04
2019-03-17T01:44:41.664Z,12.04
2019-03-17T01:44:42.235Z,12.04
2019-03-17T01:44:42.834Z,12.04
2019-03-17T01:44:43.434Z,12.08
2019-03-17T01:44:44.034Z,12.04
2019-03-17T01:44:44.634Z,12.12
2019-03-17T01:44:45.233Z,12.13
2019-03-17T01:44:45.834Z,12.06
2019-03-17T01:45:39.313Z,12.02
2019-03-17T01:45:39.886Z,12.11
2019-03-17T01:45:40.490Z,12.08
2019-03-17T01:45:41.086Z,12.13
2019-03-17T01:45:41.687Z,12.11
2019-03-17T01:45:42.286Z,12.06
2019-03-17T01:45:42.885Z,12.15
2019-03-17T01:45:43.487Z,12.05
2019-03-17T01:46:37.074Z,12.08
2019-03-17T01:46:37.647Z,12.11
2019-03-17T01:46:38.244Z,12.08
2019-03-17T01:46:38.842Z,12.11
2019-03-17T01:46:39.441Z,12.08
2019-03-17T01:46:40.040Z,12.05
2019-03-17T01:46:40.640Z,12.11
2019-03-17T01:46:41.241Z,12.11
2019-03-17T01:47:35.763Z,12.05
2019-03-17T01:47:36.321Z,12.11
2019-03-17T01:47:36.925Z,12.04
2019-03-17T01:47:37.513Z,12.12
2019-03-17T01:47:38.113Z,12.12
2019-03-17T01:47:38.715Z,12.15
2019-03-17T01:47:39.315Z,12.12
2019-03-17T01:47:39.916Z,12.15
2019-03-17T01:48:34.418Z,12.08
2019-03-17T01:48:34.990Z,12.12
2019-03-17T01:48:35.591Z,12.08
2019-03-17T01:48:36.216Z,12.08
2019-03-17T01:48:36.793Z,12.11
2019-03-17T01:48:37.390Z,12.13
2019-03-17T01:48:37.990Z,12.09
2019-03-17T01:48:38.591Z,12.13
2019-03-17T01:49:32.072Z,12.06
2019-03-17T01:49:32.643Z,12.13
2019-03-17T01:49:33.247Z,12.16
2019-03-17T01:49:33.843Z,12.16
2019-03-17T01:49:34.445Z,12.15
2019-03-17T01:49:35.044Z,12.09
2019-03-17T01:49:35.645Z,12.08
2019-03-17T01:49:36.246Z,12.08
2019-03-17T01:50:30.745Z,12.13
2019-03-17T01:50:31.340Z,12.11
2019-03-17T01:50:31.922Z,12.13
2019-03-17T01:50:32.518Z,12.15
2019-03-17T01:50:33.119Z,12.13
2019-03-17T01:50:33.717Z,12.15
2019-03-17T01:50:34.316Z,12.15
2019-03-17T01:50:34.918Z,12.15
2019-03-17T01:51:29.424Z,12.11
2019-03-17T01:51:29.996Z,12.13
2019-03-17T01:51:30.593Z,12.15
2019-03-17T01:51:31.193Z,12.12
2019-03-17T01:51:31.793Z,12.11
2019-03-17T01:51:32.470Z,12.16
2019-03-17T01:51:32.994Z,12.12
2019-03-17T01:51:33.593Z,12.13
2019-03-17T01:52:27.074Z,12.05
2019-03-17T01:52:27.647Z,12.08
2019-03-17T01:52:28.251Z,12.06
2019-03-17T01:52:28.848Z,12.08
2019-03-17T01:52:29.447Z,12.15
2019-03-17T01:52:30.046Z,12.08
2019-03-17T01:52:30.652Z,12.12
2019-03-17T01:52:31.246Z,12.12
2019-03-17T01:53:24.725Z,12.05
2019-03-17T01:53:25.300Z,12.12
2019-03-17T01:53:25.897Z,12.08
2019-03-17T01:53:26.501Z,12.09
2019-03-17T01:53:27.101Z,12.08
2019-03-17T01:53:27.697Z,12.04
2019-03-17T01:53:28.298Z,12.05
2019-03-17T01:53:28.899Z,12.09
2019-03-17T01:54:22.377Z,12.13
2019-03-17T01:54:22.951Z,12.08
2019-03-17T01:54:23.552Z,12.05
2019-03-17T01:54:24.153Z,12.09
2019-03-17T01:54:24.752Z,12.05
2019-03-17T01:54:25.352Z,12.06
2019-03-17T01:54:25.948Z,12.11
2019-03-17T01:54:26.551Z,12.08
2019-03-17T01:55:20.031Z,12.02
2019-03-17T01:55:20.603Z,12.12
2019-03-17T01:55:21.202Z,12.13
2019-03-17T01:55:21.802Z,12.09
2019-03-17T01:55:22.401Z,12.13
2019-03-17T01:55:23.000Z,12.08
2019-03-17T01:55:23.602Z,12.08
2019-03-17T01:55:24.202Z,12.11
2019-03-17T01:56:19.217Z,12.19
2019-03-17T01:56:19.791Z,12.09
2019-03-17T01:56:20.388Z,12.13
2019-03-17T01:56:20.988Z,12.11
2019-03-17T01:56:21.600Z,12.13
2019-03-17T01:56:22.191Z,12.11
2019-03-17T01:57:16.263Z,12.08
2019-03-17T01:57:16.833Z,12.04
2019-03-17T01:57:17.432Z,12.13
2019-03-17T01:57:18.026Z,12.08
2019-03-17T01:57:18.628Z,12.15
2019-03-17T01:57:19.225Z,12.06
2019-03-17T01:57:19.836Z,12.09
2019-03-17T01:57:20.423Z,12.12
2019-03-17T01:58:13.909Z,12.08
2019-03-17T01:58:14.478Z,12.06
2019-03-17T01:58:15.079Z,12.11
2019-03-17T01:58:15.694Z,12.08
2019-03-17T01:58:16.282Z,12.09
2019-03-17T01:58:16.877Z,12.13
2019-03-17T01:58:17.479Z,12.08
2019-03-17T01:58:18.078Z,12.16
2019-03-17T01:59:11.562Z,12.12
2019-03-17T01:59:12.134Z,12.15
2019-03-17T01:59:12.729Z,12.15
2019-03-17T01:59:13.330Z,12.08
2019-03-17T01:59:13.929Z,12.21
2019-03-17T01:59:14.534Z,12.16
2019-03-17T01:59:15.129Z,12.16
2019-03-17T01:59:15.729Z,12.12
2019-03-17T02:00:09.209Z,12.12
2019-03-17T02:00:09.783Z,12.08
2019-03-17T02:00:10.381Z,12.13
2019-03-17T02:00:11.061Z,12.09
2019-03-17T02:00:11.582Z,12.15
2019-03-17T02:00:12.183Z,12.11
2019-03-17T02:00:12.781Z,12.16
2019-03-17T02:00:13.382Z,12.20
2019-03-17T02:01:06.861Z,12.09
2019-03-17T02:01:07.433Z,12.13
2019-03-17T02:01:08.036Z,12.12
2019-03-17T02:01:11.638Z,12.12
2019-03-17T02:01:11.762Z,12.12
2019-03-17T02:01:11.830Z,12.16
2019-03-17T02:01:11.876Z,12.05
2019-03-17T02:01:11.987Z,12.15
2019-03-17T02:02:05.555Z,12.13
2019-03-17T02:02:06.108Z,12.15
2019-03-17T02:02:06.708Z,12.04
2019-03-17T02:02:07.308Z,12.05
2019-03-17T02:02:07.907Z,12.06
2019-03-17T02:02:08.507Z,12.11
2019-03-17T02:02:09.111Z,12.11
2019-03-17T02:02:09.707Z,12.12
2019-03-17T02:03:04.212Z,12.08
2019-03-17T02:03:04.784Z,12.08
2019-03-17T02:03:05.385Z,12.11
2019-03-17T02:03:05.983Z,12.09